sensor_id;sensor_type;location;lat;lon;timestamp;pressure;altitude;pressure_sealevel;temperature;humidity
8320;BME280;4197;42.130;24.746;2024-02-04T00:01:26;99807.41;;;9.04;61.09
8320;BME280;4197;42.130;24.746;2024-02-04T00:03:54;99809.56;;;9.11;60.88
8320;BME280;4197;42.130;24.746;2024-02-04T00:06:25;99808.66;;;9.07;60.80
8320;BME280;4197;42.130;24.746;2024-02-04T00:08:53;99813.81;;;9.00;61.41
8320;BME280;4197;42.130;24.746;2024-02-04T00:11:21;99818.84;;;8.89;61.46
8320;BME280;4197;42.130;24.746;2024-02-04T00:13:50;99813.06;;;8.78;61.99
8320;BME280;4197;42.130;24.746;2024-02-04T00:16:19;99826.81;;;8.73;62.17
8320;BME280;4197;42.130;24.746;2024-02-04T00:18:47;99821.59;;;8.68;62.66
8320;BME280;4197;42.130;24.746;2024-02-04T00:21:16;99825.28;;;8.63;62.86
8320;BME280;4197;42.130;24.746;2024-02-04T00:23:45;99829.31;;;8.57;63.15
8320;BME280;4197;42.130;24.746;2024-02-04T00:26:14;99832.69;;;8.54;63.74
8320;BME280;4197;42.130;24.746;2024-02-04T00:28:42;99823.25;;;8.60;63.51
8320;BME280;4197;42.130;24.746;2024-02-04T00:31:10;99823.63;;;8.71;63.53
8320;BME280;4197;42.130;24.746;2024-02-04T00:33:39;99823.75;;;8.75;63.22
8320;BME280;4197;42.130;24.746;2024-02-04T00:36:08;99816.69;;;8.82;63.34
8320;BME280;4197;42.130;24.746;2024-02-04T00:38:37;99821.13;;;8.87;62.99
8320;BME280;4197;42.130;24.746;2024-02-04T00:41:07;99820.22;;;8.95;62.68
8320;BME280;4197;42.130;24.746;2024-02-04T00:43:35;99821.25;;;9.03;62.75
8320;BME280;4197;42.130;24.746;2024-02-04T00:46:04;99813.41;;;9.10;62.31
8320;BME280;4197;42.130;24.746;2024-02-04T00:48:32;99823.88;;;9.11;62.00
8320;BME280;4197;42.130;24.746;2024-02-04T00:51:00;99822.75;;;9.12;61.47
8320;BME280;4197;42.130;24.746;2024-02-04T00:53:29;99815.75;;;9.11;61.47
8320;BME280;4197;42.130;24.746;2024-02-04T00:56:01;99821.72;;;9.05;61.67
8320;BME280;4197;42.130;24.746;2024-02-04T00:58:31;99826.44;;;8.96;62.28
8320;BME280;4197;42.130;24.746;2024-02-04T01:01:00;99827.44;;;8.91;62.65
8320;BME280;4197;42.130;24.746;2024-02-04T01:03:28;99831.94;;;8.87;63.03
8320;BME280;4197;42.130;24.746;2024-02-04T01:05:57;99820.31;;;8.86;62.55
8320;BME280;4197;42.130;24.746;2024-02-04T01:08:25;99825.78;;;8.78;62.88
8320;BME280;4197;42.130;24.746;2024-02-04T01:10:54;99831.09;;;8.74;63.04
8320;BME280;4197;42.130;24.746;2024-02-04T01:13:22;99819.03;;;8.71;63.59
8320;BME280;4197;42.130;24.746;2024-02-04T01:15:52;99827.44;;;8.70;63.40
8320;BME280;4197;42.130;24.746;2024-02-04T01:18:20;99823.97;;;8.69;63.26
8320;BME280;4197;42.130;24.746;2024-02-04T01:20:49;99821.25;;;8.69;63.09
8320;BME280;4197;42.130;24.746;2024-02-04T01:23:17;99818.91;;;8.68;63.36
8320;BME280;4197;42.130;24.746;2024-02-04T01:25:46;99818.91;;;8.68;63.55
8320;BME280;4197;42.130;24.746;2024-02-04T01:28:15;99815.72;;;8.66;63.19
8320;BME280;4197;42.130;24.746;2024-02-04T01:30:44;99823.06;;;8.65;63.33
8320;BME280;4197;42.130;24.746;2024-02-04T01:33:14;99823.56;;;8.59;63.59
8320;BME280;4197;42.130;24.746;2024-02-04T01:35:43;99816.59;;;8.58;63.80
8320;BME280;4197;42.130;24.746;2024-02-04T01:38:11;99816.03;;;8.64;63.98
8320;BME280;4197;42.130;24.746;2024-02-04T01:40:40;99807.03;;;8.60;64.13
8320;BME280;4197;42.130;24.746;2024-02-04T01:43:08;99810.31;;;8.66;64.11
8320;BME280;4197;42.130;24.746;2024-02-04T01:45:36;99817.31;;;8.67;63.71
8320;BME280;4197;42.130;24.746;2024-02-04T01:48:06;99813.94;;;8.70;63.85
8320;BME280;4197;42.130;24.746;2024-02-04T01:50:37;99813.72;;;8.75;63.29
8320;BME280;4197;42.130;24.746;2024-02-04T01:53:06;99807.06;;;8.73;63.32
8320;BME280;4197;42.130;24.746;2024-02-04T01:55:34;99815.31;;;8.76;63.69
8320;BME280;4197;42.130;24.746;2024-02-04T01:58:03;99811.59;;;8.81;64.04
8320;BME280;4197;42.130;24.746;2024-02-04T02:00:32;99808.59;;;8.82;64.09
8320;BME280;4197;42.130;24.746;2024-02-04T02:03:04;99810.50;;;8.82;64.61
8320;BME280;4197;42.130;24.746;2024-02-04T02:05:34;99808.69;;;8.86;64.99
8320;BME280;4197;42.130;24.746;2024-02-04T02:08:05;99814.00;;;8.82;65.00
8320;BME280;4197;42.130;24.746;2024-02-04T02:10:33;99806.47;;;8.88;64.89
8320;BME280;4197;42.130;24.746;2024-02-04T02:13:07;99817.28;;;8.88;65.02
8320;BME280;4197;42.130;24.746;2024-02-04T02:15:42;99796.53;;;8.92;65.29
8320;BME280;4197;42.130;24.746;2024-02-04T02:18:18;99800.38;;;8.91;65.63
8320;BME280;4197;42.130;24.746;2024-02-04T02:21:02;99795.44;;;8.93;65.59
8320;BME280;4197;42.130;24.746;2024-02-04T02:23:40;99796.44;;;8.88;65.75
8320;BME280;4197;42.130;24.746;2024-02-04T02:26:14;99793.25;;;8.86;65.71
8320;BME280;4197;42.130;24.746;2024-02-04T02:28:42;99794.06;;;8.87;65.93
8320;BME280;4197;42.130;24.746;2024-02-04T02:31:10;99800.94;;;8.84;66.32
8320;BME280;4197;42.130;24.746;2024-02-04T02:33:39;99801.25;;;8.83;66.54
8320;BME280;4197;42.130;24.746;2024-02-04T02:36:13;99801.59;;;8.81;66.09
8320;BME280;4197;42.130;24.746;2024-02-04T02:38:46;99792.69;;;8.81;65.76
8320;BME280;4197;42.130;24.746;2024-02-04T02:41:20;99792.88;;;8.76;66.31
8320;BME280;4197;42.130;24.746;2024-02-04T02:43:51;99793.81;;;8.80;66.04
8320;BME280;4197;42.130;24.746;2024-02-04T02:46:21;99790.78;;;8.81;65.73
8320;BME280;4197;42.130;24.746;2024-02-04T02:48:51;99790.44;;;8.83;65.77
8320;BME280;4197;42.130;24.746;2024-02-04T02:51:21;99793.22;;;8.74;66.30
8320;BME280;4197;42.130;24.746;2024-02-04T02:53:49;99789.19;;;8.80;65.55
8320;BME280;4197;42.130;24.746;2024-02-04T02:56:19;99788.97;;;8.73;65.96
8320;BME280;4197;42.130;24.746;2024-02-04T02:58:47;99785.78;;;8.71;65.71
8320;BME280;4197;42.130;24.746;2024-02-04T03:01:16;99780.13;;;8.64;66.43
8320;BME280;4197;42.130;24.746;2024-02-04T03:03:44;99782.63;;;8.69;66.15
8320;BME280;4197;42.130;24.746;2024-02-04T03:06:13;99781.47;;;8.70;66.20
8320;BME280;4197;42.130;24.746;2024-02-04T03:08:41;99774.19;;;8.70;65.94
8320;BME280;4197;42.130;24.746;2024-02-04T03:11:09;99785.13;;;8.74;65.88
8320;BME280;4197;42.130;24.746;2024-02-04T03:13:39;99774.97;;;8.71;65.79
8320;BME280;4197;42.130;24.746;2024-02-04T03:16:10;99767.19;;;8.69;65.41
8320;BME280;4197;42.130;24.746;2024-02-04T03:18:40;99768.63;;;8.67;65.72
8320;BME280;4197;42.130;24.746;2024-02-04T03:21:12;99778.19;;;8.64;65.41
8320;BME280;4197;42.130;24.746;2024-02-04T03:23:42;99779.22;;;8.60;65.56
8320;BME280;4197;42.130;24.746;2024-02-04T03:26:11;99779.22;;;8.60;65.76
8320;BME280;4197;42.130;24.746;2024-02-04T03:28:41;99778.09;;;8.61;65.31
8320;BME280;4197;42.130;24.746;2024-02-04T03:31:09;99776.03;;;8.58;65.73
8320;BME280;4197;42.130;24.746;2024-02-04T03:33:38;99774.47;;;8.57;65.67
8320;BME280;4197;42.130;24.746;2024-02-04T03:36:06;99775.59;;;8.56;65.94
8320;BME280;4197;42.130;24.746;2024-02-04T03:38:35;99772.09;;;8.55;65.89
8320;BME280;4197;42.130;24.746;2024-02-04T03:41:04;99761.69;;;8.45;65.61
8320;BME280;4197;42.130;24.746;2024-02-04T03:43:32;99760.91;;;8.44;65.73
8320;BME280;4197;42.130;24.746;2024-02-04T03:46:02;99762.94;;;8.47;65.27
8320;BME280;4197;42.130;24.746;2024-02-04T03:48:30;99764.34;;;8.54;64.67
8320;BME280;4197;42.130;24.746;2024-02-04T03:51:01;99767.03;;;8.54;65.01
8320;BME280;4197;42.130;24.746;2024-02-04T03:53:29;99762.06;;;8.56;64.29
8320;BME280;4197;42.130;24.746;2024-02-04T03:55:58;99755.22;;;8.58;64.15
8320;BME280;4197;42.130;24.746;2024-02-04T03:58:26;99764.97;;;8.51;64.22
8320;BME280;4197;42.130;24.746;2024-02-04T04:00:57;99763.88;;;8.52;64.27
8320;BME280;4197;42.130;24.746;2024-02-04T04:03:27;99756.44;;;8.48;64.29
8320;BME280;4197;42.130;24.746;2024-02-04T04:05:56;99763.28;;;8.46;64.85
8320;BME280;4197;42.130;24.746;2024-02-04T04:08:25;99758.53;;;8.43;65.14
8320;BME280;4197;42.130;24.746;2024-02-04T04:10:53;99744.88;;;8.39;65.64
8320;BME280;4197;42.130;24.746;2024-02-04T04:13:22;99745.03;;;8.43;66.29
8320;BME280;4197;42.130;24.746;2024-02-04T04:15:51;99736.25;;;8.46;66.99
8320;BME280;4197;42.130;24.746;2024-02-04T04:18:19;99740.78;;;8.54;66.87
8320;BME280;4197;42.130;24.746;2024-02-04T04:20:49;99742.16;;;8.60;67.35
8320;BME280;4197;42.130;24.746;2024-02-04T04:23:17;99751.75;;;8.70;67.67
8320;BME280;4197;42.130;24.746;2024-02-04T04:25:46;99732.19;;;8.73;67.55
8320;BME280;4197;42.130;24.746;2024-02-04T04:28:15;99742.66;;;8.75;67.45
8320;BME280;4197;42.130;24.746;2024-02-04T04:30:44;99744.34;;;8.79;67.81
8320;BME280;4197;42.130;24.746;2024-02-04T04:33:12;99733.53;;;8.79;68.40
8320;BME280;4197;42.130;24.746;2024-02-04T04:35:40;99736.94;;;8.88;68.61
8320;BME280;4197;42.130;24.746;2024-02-04T04:38:10;99731.41;;;8.97;68.79
8320;BME280;4197;42.130;24.746;2024-02-04T04:40:39;99729.06;;;8.96;68.75
8320;BME280;4197;42.130;24.746;2024-02-04T04:43:08;99725.91;;;8.93;68.40
8320;BME280;4197;42.130;24.746;2024-02-04T04:45:37;99725.91;;;8.93;68.47
8320;BME280;4197;42.130;24.746;2024-02-04T04:48:05;99728.59;;;8.93;67.78
8320;BME280;4197;42.130;24.746;2024-02-04T04:50:37;99729.28;;;8.90;67.58
8320;BME280;4197;42.130;24.746;2024-02-04T04:53:05;99726.13;;;8.88;67.46
8320;BME280;4197;42.130;24.746;2024-02-04T04:55:35;99723.03;;;8.78;67.66
8320;BME280;4197;42.130;24.746;2024-02-04T04:58:04;99727.25;;;8.87;67.59
8320;BME280;4197;42.130;24.746;2024-02-04T05:00:32;99724.53;;;8.87;67.16
8320;BME280;4197;42.130;24.746;2024-02-04T05:03:00;99730.84;;;8.91;67.51
8320;BME280;4197;42.130;24.746;2024-02-04T05:05:29;99725.13;;;8.93;67.24
8320;BME280;4197;42.130;24.746;2024-02-04T05:07:57;99742.59;;;8.96;67.36
8320;BME280;4197;42.130;24.746;2024-02-04T05:10:26;99743.94;;;9.02;67.26
8320;BME280;4197;42.130;24.746;2024-02-04T05:12:55;99742.94;;;9.06;67.09
8320;BME280;4197;42.130;24.746;2024-02-04T05:15:24;99743.28;;;9.05;67.25
8320;BME280;4197;42.130;24.746;2024-02-04T05:17:53;99745.56;;;9.15;67.14
8320;BME280;4197;42.130;24.746;2024-02-04T05:20:21;99748.56;;;9.13;67.23
8320;BME280;4197;42.130;24.746;2024-02-04T05:22:49;99754.78;;;9.14;67.42
8320;BME280;4197;42.130;24.746;2024-02-04T05:25:18;99760.06;;;9.23;67.53
8320;BME280;4197;42.130;24.746;2024-02-04T05:27:46;99761.69;;;9.24;67.21
8320;BME280;4197;42.130;24.746;2024-02-04T05:30:16;99772.16;;;9.25;67.29
8320;BME280;4197;42.130;24.746;2024-02-04T05:32:44;99774.78;;;9.34;66.89
8320;BME280;4197;42.130;24.746;2024-02-04T05:35:13;99767.88;;;9.36;66.25
8320;BME280;4197;42.130;24.746;2024-02-04T05:37:41;99776.66;;;9.33;66.70
8320;BME280;4197;42.130;24.746;2024-02-04T05:40:11;99782.22;;;9.37;66.53
8320;BME280;4197;42.130;24.746;2024-02-04T05:42:42;99785.81;;;9.41;66.50
8320;BME280;4197;42.130;24.746;2024-02-04T05:45:11;99786.72;;;9.45;66.04
8320;BME280;4197;42.130;24.746;2024-02-04T05:47:42;99792.56;;;9.47;65.65
8320;BME280;4197;42.130;24.746;2024-02-04T05:50:11;99792.78;;;9.42;65.38
8320;BME280;4197;42.130;24.746;2024-02-04T05:52:41;99796.44;;;9.34;65.96
8320;BME280;4197;42.130;24.746;2024-02-04T05:55:10;99806.22;;;9.38;65.76
8320;BME280;4197;42.130;24.746;2024-02-04T05:57:40;99802.47;;;9.31;65.86
8320;BME280;4197;42.130;24.746;2024-02-04T06:00:09;99794.72;;;9.29;65.71
8320;BME280;4197;42.130;24.746;2024-02-04T06:02:38;99796.50;;;9.25;65.74
8320;BME280;4197;42.130;24.746;2024-02-04T06:05:08;99792.13;;;9.21;65.72
8320;BME280;4197;42.130;24.746;2024-02-04T06:07:37;99792.66;;;9.14;66.32
8320;BME280;4197;42.130;24.746;2024-02-04T06:10:09;99797.13;;;8.98;67.28
8320;BME280;4197;42.130;24.746;2024-02-04T06:12:38;99798.94;;;9.06;67.30
8320;BME280;4197;42.130;24.746;2024-02-04T06:15:15;99788.22;;;8.97;67.69
8320;BME280;4197;42.130;24.746;2024-02-04T06:17:43;99779.53;;;8.91;67.99
8320;BME280;4197;42.130;24.746;2024-02-04T06:20:14;99779.31;;;8.84;68.88
8320;BME280;4197;42.130;24.746;2024-02-04T06:22:43;99772.34;;;8.96;68.69
8320;BME280;4197;42.130;24.746;2024-02-04T06:25:11;99758.25;;;9.02;68.41
8320;BME280;4197;42.130;24.746;2024-02-04T06:27:41;99759.75;;;9.12;68.25
8320;BME280;4197;42.130;24.746;2024-02-04T06:30:11;99761.56;;;9.20;67.81
8320;BME280;4197;42.130;24.746;2024-02-04T06:32:40;99759.75;;;9.24;67.97
8320;BME280;4197;42.130;24.746;2024-02-04T06:35:08;99756.06;;;9.29;68.17
8320;BME280;4197;42.130;24.746;2024-02-04T06:37:39;99738.91;;;9.37;67.66
8320;BME280;4197;42.130;24.746;2024-02-04T06:40:10;99740.47;;;9.38;68.25
8320;BME280;4197;42.130;24.746;2024-02-04T06:42:38;99739.81;;;9.53;69.08
8320;BME280;4197;42.130;24.746;2024-02-04T06:45:07;99749.84;;;9.65;68.90
8320;BME280;4197;42.130;24.746;2024-02-04T06:47:36;99757.25;;;9.80;68.09
8320;BME280;4197;42.130;24.746;2024-02-04T06:50:07;99761.06;;;9.92;67.39
8320;BME280;4197;42.130;24.746;2024-02-04T06:52:42;99775.28;;;10.01;67.29
8320;BME280;4197;42.130;24.746;2024-02-04T06:55:11;99767.81;;;10.10;67.42
8320;BME280;4197;42.130;24.746;2024-02-04T06:57:40;99773.78;;;10.16;67.50
8320;BME280;4197;42.130;24.746;2024-02-04T07:00:11;99775.47;;;10.20;67.91
8320;BME280;4197;42.130;24.746;2024-02-04T07:02:42;99778.16;;;10.33;67.56
8320;BME280;4197;42.130;24.746;2024-02-04T07:05:11;99784.13;;;10.38;67.76
8320;BME280;4197;42.130;24.746;2024-02-04T07:07:44;99785.59;;;10.48;67.56
8320;BME280;4197;42.130;24.746;2024-02-04T07:10:12;99793.91;;;10.55;67.34
8320;BME280;4197;42.130;24.746;2024-02-04T07:12:41;99787.47;;;10.60;67.18
8320;BME280;4197;42.130;24.746;2024-02-04T07:15:09;99802.00;;;10.67;66.99
8320;BME280;4197;42.130;24.746;2024-02-04T07:17:37;99800.16;;;10.71;66.87
8320;BME280;4197;42.130;24.746;2024-02-04T07:20:06;99807.59;;;10.75;66.45
8320;BME280;4197;42.130;24.746;2024-02-04T07:22:35;99817.44;;;10.79;66.16
8320;BME280;4197;42.130;24.746;2024-02-04T07:25:07;99815.25;;;10.85;66.01
8320;BME280;4197;42.130;24.746;2024-02-04T07:27:35;99822.00;;;10.91;65.64
8320;BME280;4197;42.130;24.746;2024-02-04T07:30:06;99825.25;;;10.97;65.23
8320;BME280;4197;42.130;24.746;2024-02-04T07:32:35;99822.75;;;11.04;65.00
8320;BME280;4197;42.130;24.746;2024-02-04T07:35:05;99827.09;;;11.08;64.68
8320;BME280;4197;42.130;24.746;2024-02-04T07:37:36;99829.16;;;11.11;64.90
8320;BME280;4197;42.130;24.746;2024-02-04T07:40:07;99826.53;;;11.15;64.35
8320;BME280;4197;42.130;24.746;2024-02-04T07:42:37;99832.94;;;11.23;64.10
8320;BME280;4197;42.130;24.746;2024-02-04T07:45:06;99833.53;;;11.32;63.19
8320;BME280;4197;42.130;24.746;2024-02-04T07:47:37;99817.69;;;11.34;62.95
8320;BME280;4197;42.130;24.746;2024-02-04T07:50:07;99818.75;;;11.45;62.64
8320;BME280;4197;42.130;24.746;2024-02-04T07:52:36;99811.28;;;11.58;62.24
8320;BME280;4197;42.130;24.746;2024-02-04T07:55:09;99809.72;;;11.57;62.68
8320;BME280;4197;42.130;24.746;2024-02-04T07:57:38;99814.78;;;11.74;62.21
8320;BME280;4197;42.130;24.746;2024-02-04T08:00:07;99818.66;;;11.89;61.81
8320;BME280;4197;42.130;24.746;2024-02-04T08:02:37;99814.00;;;12.05;61.01
8320;BME280;4197;42.130;24.746;2024-02-04T08:05:06;99810.63;;;12.12;60.63
8320;BME280;4197;42.130;24.746;2024-02-04T08:07:35;99811.78;;;12.11;61.08
8320;BME280;4197;42.130;24.746;2024-02-04T08:10:04;99801.94;;;12.22;60.70
8320;BME280;4197;42.130;24.746;2024-02-04T08:12:35;99801.00;;;12.34;60.77
8320;BME280;4197;42.130;24.746;2024-02-04T08:15:05;99790.63;;;12.40;60.19
8320;BME280;4197;42.130;24.746;2024-02-04T08:17:33;99789.47;;;12.41;60.83
8320;BME280;4197;42.130;24.746;2024-02-04T08:20:03;99788.56;;;12.53;60.68
8320;BME280;4197;42.130;24.746;2024-02-04T08:22:32;99781.31;;;12.60;60.18
8320;BME280;4197;42.130;24.746;2024-02-04T08:25:02;99789.06;;;12.58;60.02
8320;BME280;4197;42.130;24.746;2024-02-04T08:27:36;99778.31;;;12.46;60.82
8320;BME280;4197;42.130;24.746;2024-02-04T08:30:06;99782.75;;;12.54;60.86
8320;BME280;4197;42.130;24.746;2024-02-04T08:32:34;99787.34;;;12.50;60.68
8320;BME280;4197;42.130;24.746;2024-02-04T08:35:05;99799.34;;;12.49;60.89
8320;BME280;4197;42.130;24.746;2024-02-04T08:37:33;99790.84;;;12.50;60.91
8320;BME280;4197;42.130;24.746;2024-02-04T08:40:04;99795.50;;;12.50;61.29
8320;BME280;4197;42.130;24.746;2024-02-04T08:42:33;99787.97;;;12.63;60.64
8320;BME280;4197;42.130;24.746;2024-02-04T08:45:04;99799.22;;;12.61;60.40
8320;BME280;4197;42.130;24.746;2024-02-04T08:47:33;99794.19;;;12.63;60.45
8320;BME280;4197;42.130;24.746;2024-02-04T08:50:03;99793.28;;;12.75;60.11
8320;BME280;4197;42.130;24.746;2024-02-04T08:52:32;99784.44;;;12.82;59.93
8320;BME280;4197;42.130;24.746;2024-02-04T08:55:01;99784.47;;;13.05;59.14
8320;BME280;4197;42.130;24.746;2024-02-04T08:57:31;99785.56;;;13.23;58.89
8320;BME280;4197;42.130;24.746;2024-02-04T08:59:59;99789.72;;;13.36;58.17
8320;BME280;4197;42.130;24.746;2024-02-04T09:02:29;99794.78;;;13.38;58.23
8320;BME280;4197;42.130;24.746;2024-02-04T09:04:57;99798.94;;;13.55;57.83
8320;BME280;4197;42.130;24.746;2024-02-04T09:07:26;99787.75;;;13.87;56.64
8320;BME280;4197;42.130;24.746;2024-02-04T09:09:58;99789.53;;;14.02;56.29
8320;BME280;4197;42.130;24.746;2024-02-04T09:12:27;99785.38;;;14.12;55.58
8320;BME280;4197;42.130;24.746;2024-02-04T09:14:55;99786.66;;;14.21;55.42
8320;BME280;4197;42.130;24.746;2024-02-04T09:17:24;99778.16;;;14.26;54.92
8320;BME280;4197;42.130;24.746;2024-02-04T09:19:54;99778.44;;;14.18;55.07
8320;BME280;4197;42.130;24.746;2024-02-04T09:22:22;99777.41;;;14.29;54.58
8320;BME280;4197;42.130;24.746;2024-02-04T09:24:51;99782.97;;;14.37;54.05
8320;BME280;4197;42.130;24.746;2024-02-04T09:27:19;99765.72;;;14.29;54.00
8320;BME280;4197;42.130;24.746;2024-02-04T09:29:48;99765.69;;;14.25;53.86
8320;BME280;4197;42.130;24.746;2024-02-04T09:32:16;99766.16;;;14.31;53.65
8320;BME280;4197;42.130;24.746;2024-02-04T09:34:45;99750.13;;;14.29;53.89
8320;BME280;4197;42.130;24.746;2024-02-04T09:37:16;99750.06;;;14.22;53.81
8320;BME280;4197;42.130;24.746;2024-02-04T09:39:44;99733.75;;;14.26;53.75
8320;BME280;4197;42.130;24.746;2024-02-04T09:42:19;99742.47;;;14.39;53.31
8320;BME280;4197;42.130;24.746;2024-02-04T09:44:49;99732.03;;;14.48;52.83
8320;BME280;4197;42.130;24.746;2024-02-04T09:47:18;99723.59;;;14.57;52.78
8320;BME280;4197;42.130;24.746;2024-02-04T09:49:47;99729.63;;;14.77;52.31
8320;BME280;4197;42.130;24.746;2024-02-04T09:52:18;99733.63;;;14.86;52.13
8320;BME280;4197;42.130;24.746;2024-02-04T09:54:50;99719.88;;;15.16;50.98
8320;BME280;4197;42.130;24.746;2024-02-04T09:57:24;99728.53;;;15.29;50.49
8320;BME280;4197;42.130;24.746;2024-02-04T09:59:53;99718.78;;;15.32;50.13
8320;BME280;4197;42.130;24.746;2024-02-04T10:02:23;99717.72;;;15.44;49.72
8320;BME280;4197;42.130;24.746;2024-02-04T10:04:51;99708.78;;;15.47;49.59
8320;BME280;4197;42.130;24.746;2024-02-04T10:07:22;99705.56;;;15.37;50.13
8320;BME280;4197;42.130;24.746;2024-02-04T10:09:51;99705.06;;;15.21;50.24
8320;BME280;4197;42.130;24.746;2024-02-04T10:12:19;99699.91;;;15.09;50.63
8320;BME280;4197;42.130;24.746;2024-02-04T10:14:49;99704.25;;;15.13;50.62
8320;BME280;4197;42.130;24.746;2024-02-04T10:17:19;99710.03;;;15.08;50.89
8320;BME280;4197;42.130;24.746;2024-02-04T10:19:49;99705.72;;;15.07;51.06
8320;BME280;4197;42.130;24.746;2024-02-04T10:22:17;99710.84;;;15.12;50.77
8320;BME280;4197;42.130;24.746;2024-02-04T10:24:47;99688.63;;;15.14;50.40
8320;BME280;4197;42.130;24.746;2024-02-04T10:27:16;99706.03;;;14.99;49.62
8320;BME280;4197;42.130;24.746;2024-02-04T10:29:58;99700.56;;;14.95;49.32
8320;BME280;4197;42.130;24.746;2024-02-04T10:32:26;99702.78;;;14.82;48.97
8320;BME280;4197;42.130;24.746;2024-02-04T10:34:54;99696.50;;;14.75;49.49
8320;BME280;4197;42.130;24.746;2024-02-04T10:37:23;99696.00;;;14.65;49.70
8320;BME280;4197;42.130;24.746;2024-02-04T10:39:57;99688.13;;;14.60;49.74
8320;BME280;4197;42.130;24.746;2024-02-04T10:42:27;99693.22;;;14.62;50.05
8320;BME280;4197;42.130;24.746;2024-02-04T10:44:57;99688.97;;;14.64;50.29
8320;BME280;4197;42.130;24.746;2024-02-04T10:47:30;99696.03;;;14.69;50.04
8320;BME280;4197;42.130;24.746;2024-02-04T10:50:02;99700.44;;;14.81;49.80
8320;BME280;4197;42.130;24.746;2024-02-04T10:52:35;99704.75;;;14.85;49.78
8320;BME280;4197;42.130;24.746;2024-02-04T10:55:08;99702.56;;;15.02;49.63
8320;BME280;4197;42.130;24.746;2024-02-04T10:57:38;99715.97;;;15.17;49.12
8320;BME280;4197;42.130;24.746;2024-02-04T11:00:08;99707.41;;;15.19;49.32
8320;BME280;4197;42.130;24.746;2024-02-04T11:02:40;99712.06;;;15.18;49.08
8320;BME280;4197;42.130;24.746;2024-02-04T11:05:13;99716.41;;;15.23;48.85
8320;BME280;4197;42.130;24.746;2024-02-04T11:07:43;99723.47;;;15.28;48.78
8320;BME280;4197;42.130;24.746;2024-02-04T11:10:14;99710.50;;;15.21;48.92
8320;BME280;4197;42.130;24.746;2024-02-04T11:12:43;99723.41;;;15.21;48.56
8320;BME280;4197;42.130;24.746;2024-02-04T11:15:15;99717.13;;;15.16;48.00
8320;BME280;4197;42.130;24.746;2024-02-04T11:18:07;99721.00;;;15.15;47.99
8320;BME280;4197;42.130;24.746;2024-02-04T11:20:57;99707.00;;;15.17;48.20
8320;BME280;4197;42.130;24.746;2024-02-04T11:23:47;99703.94;;;15.29;48.17
8320;BME280;4197;42.130;24.746;2024-02-04T11:26:20;99698.53;;;15.33;47.76
8320;BME280;4197;42.130;24.746;2024-02-04T11:28:49;99693.53;;;15.46;47.67
8320;BME280;4197;42.130;24.746;2024-02-04T11:31:18;99694.41;;;15.60;47.52
8320;BME280;4197;42.130;24.746;2024-02-04T11:33:47;99699.88;;;15.60;47.45
8320;BME280;4197;42.130;24.746;2024-02-04T11:36:24;99686.31;;;15.75;47.22
8320;BME280;4197;42.130;24.746;2024-02-04T11:38:54;99678.59;;;15.91;47.04
8320;BME280;4197;42.130;24.746;2024-02-04T11:41:25;99674.31;;;16.04;47.10
8320;BME280;4197;42.130;24.746;2024-02-04T11:43:56;99673.41;;;15.75;47.03
8320;BME280;4197;42.130;24.746;2024-02-04T11:46:30;99669.50;;;15.76;47.47
8320;BME280;4197;42.130;24.746;2024-02-04T11:49:00;99663.72;;;15.92;46.89
8320;BME280;4197;42.130;24.746;2024-02-04T11:51:30;99657.91;;;16.01;46.76
8320;BME280;4197;42.130;24.746;2024-02-04T11:53:59;99657.13;;;16.04;46.07
8320;BME280;4197;42.130;24.746;2024-02-04T11:56:33;99657.13;;;16.00;45.84
8320;BME280;4197;42.130;24.746;2024-02-04T11:59:03;99652.78;;;15.92;45.72
8320;BME280;4197;42.130;24.746;2024-02-04T12:01:32;99639.06;;;15.74;46.26
8320;BME280;4197;42.130;24.746;2024-02-04T12:04:09;99612.50;;;15.82;46.82
8320;BME280;4197;42.130;24.746;2024-02-04T12:06:39;99600.41;;;15.83;46.58
8320;BME280;4197;42.130;24.746;2024-02-04T12:09:08;99594.50;;;15.74;47.06
8320;BME280;4197;42.130;24.746;2024-02-04T12:11:39;99583.50;;;15.59;47.38
8320;BME280;4197;42.130;24.746;2024-02-04T12:14:08;99588.59;;;15.57;47.74
8320;BME280;4197;42.130;24.746;2024-02-04T12:16:38;99600.59;;;15.42;47.83
8320;BME280;4197;42.130;24.746;2024-02-04T12:19:06;99589.66;;;15.38;48.56
8320;BME280;4197;42.130;24.746;2024-02-04T12:21:35;99579.88;;;15.34;48.61
8320;BME280;4197;42.130;24.746;2024-02-04T12:24:05;99616.59;;;15.40;48.46
8320;BME280;4197;42.130;24.746;2024-02-04T12:26:33;99627.84;;;15.28;48.49
8320;BME280;4197;42.130;24.746;2024-02-04T12:29:06;99618.81;;;15.24;48.40
8320;BME280;4197;42.130;24.746;2024-02-04T12:31:34;99609.06;;;15.23;48.78
8320;BME280;4197;42.130;24.746;2024-02-04T12:34:08;99626.25;;;15.23;49.05
8320;BME280;4197;42.130;24.746;2024-02-04T12:36:39;99637.16;;;15.20;49.24
8320;BME280;4197;42.130;24.746;2024-02-04T12:39:11;99631.34;;;15.25;49.34
8320;BME280;4197;42.130;24.746;2024-02-04T12:41:40;99633.66;;;15.19;49.16
8320;BME280;4197;42.130;24.746;2024-02-04T12:44:10;99626.63;;;15.22;49.46
8320;BME280;4197;42.130;24.746;2024-02-04T12:46:39;99624.28;;;15.24;49.53
8320;BME280;4197;42.130;24.746;2024-02-04T12:49:07;99618.38;;;15.14;49.83
8320;BME280;4197;42.130;24.746;2024-02-04T12:51:37;99632.06;;;15.18;49.99
8320;BME280;4197;42.130;24.746;2024-02-04T12:54:07;99623.06;;;15.14;50.05
8320;BME280;4197;42.130;24.746;2024-02-04T12:56:40;99623.50;;;15.20;50.17
8320;BME280;4197;42.130;24.746;2024-02-04T12:59:10;99637.16;;;15.20;50.01
8320;BME280;4197;42.130;24.746;2024-02-04T13:01:39;99637.16;;;15.23;49.98
8320;BME280;4197;42.130;24.746;2024-02-04T13:04:08;99649.34;;;15.33;49.89
8320;BME280;4197;42.130;24.746;2024-02-04T13:06:38;99643.53;;;15.42;49.70
8320;BME280;4197;42.130;24.746;2024-02-04T13:09:06;99653.72;;;15.45;49.56
8320;BME280;4197;42.130;24.746;2024-02-04T13:11:36;99642.06;;;15.55;49.41
8320;BME280;4197;42.130;24.746;2024-02-04T13:14:05;99618.66;;;15.65;49.01
8320;BME280;4197;42.130;24.746;2024-02-04T13:16:36;99624.13;;;15.65;49.17
8320;BME280;4197;42.130;24.746;2024-02-04T13:19:05;99626.56;;;15.77;48.67
8320;BME280;4197;42.130;24.746;2024-02-04T13:21:34;99630.47;;;15.79;48.64
8320;BME280;4197;42.130;24.746;2024-02-04T13:24:03;99627.34;;;15.77;48.96
8320;BME280;4197;42.130;24.746;2024-02-04T13:26:32;99616.69;;;15.61;48.94
8320;BME280;4197;42.130;24.746;2024-02-04T13:29:00;99613.16;;;15.54;49.20
8320;BME280;4197;42.130;24.746;2024-02-04T13:31:29;99628.81;;;15.60;48.89